Aeroporto :
LOGIN :

Iscrizione | Disclaimer

   EN    FR    IT 

 










Sommario :    VFR   VFR Marginale   IFR   IFR Intensivo   IFR Molto Intensivo
Visibilità : 
Base nubi : 
>= 8 km
>= 3000ft
5 / 8 km
1000 / 3000 ft
1500m / 5 km
500 / 1000 ft
800 / 1500m
200 / 500 ft
< 800m
< 200 ft
Simboli :   Temporali  Nebbia  Neve Forte  Precipitazioni Forti  Vento > 20 kt
SIGMETs :   Varie  Temporali  Ghiacco  Turbolenza  Onda orograficha  Ceneri Vulcaniche






- Altitudine del aeroporto : 161 ft
- Codice IATA : TKU


EFTU - Turku

ULTIMO METAR :
  • 200920Z AUTO 24010KT CAVOK 03/M02 Q1023

METARs OBSOLETI :
  • 200850Z AUTO 24011KT CAVOK 02/M02 Q1023
  • 200820Z AUTO 24009KT CAVOK 02/M03 Q1023
  • 200750Z AUTO 25011KT CAVOK 02/M02 Q1024
  • 200720Z AUTO 24010KT CAVOK 02/M02 Q1023
  • 200650Z AUTO 24011KT CAVOK 02/M02 Q1024

TAF TAF EFTU
Valido dal 20 a 09 ore il 21 a 09 ore UTC


200831Z 2009/2109 25011KT CAVOK
TEMPO 2013/2019 BKN013



MetMap, La meteo Aeronautica in un colpo d'occhio ! - Copyright ORBIFLY Dicembre 2007 - Disclaimer

ORBIFLY MET'MAP TEAM :

Programmazione e sviluppo : Alexandra Zaïnal
Concezione : Baudouin d'Aumeries
Aiuto per la programmazione : Marc-Olivier Méhu
Supporto tecnico e logistico : Manuel Goepfert
Aiuto per la traduzione : Arnaldo La Scala

Contatto : metmap@orbifly.com




FONTI E CREDITI :

   NOAA